sensor_id;sensor_type;location;lat;lon;timestamp;pressure;altitude;pressure_sealevel;temperature;humidity
64243;BME280;50573;51.512;5.386;2023-01-27T00:01:45;102209.66;;;5.74;88.31
64243;BME280;50573;51.512;5.386;2023-01-27T00:11:51;102204.16;;;5.66;88.68
64243;BME280;50573;51.512;5.386;2023-01-27T00:22:12;102211.09;;;5.67;88.86
64243;BME280;50573;51.512;5.386;2023-01-27T00:32:34;102205.75;;;5.45;88.85
64243;BME280;50573;51.512;5.386;2023-01-27T00:42:54;102217.53;;;5.33;88.73
64243;BME280;50573;51.512;5.386;2023-01-27T00:52:58;102213.69;;;5.34;89.28
64243;BME280;50573;51.512;5.386;2023-01-27T01:03:04;102212.78;;;5.27;89.95
64243;BME280;50573;51.512;5.386;2023-01-27T01:13:08;102208.00;;;5.17;90.38
64243;BME280;50573;51.512;5.386;2023-01-27T01:23:13;102230.34;;;5.14;90.93
64243;BME280;50573;51.512;5.386;2023-01-27T01:33:19;102239.50;;;5.09;90.99
64243;BME280;50573;51.512;5.386;2023-01-27T01:43:22;102240.50;;;5.01;91.80
64243;BME280;50573;51.512;5.386;2023-01-27T01:53:32;102230.06;;;5.00;92.36
64243;BME280;50573;51.512;5.386;2023-01-27T02:03:39;102240.09;;;4.99;91.74
64243;BME280;50573;51.512;5.386;2023-01-27T02:13:44;102242.91;;;4.84;92.03
64243;BME280;50573;51.512;5.386;2023-01-27T02:23:55;102241.47;;;4.90;90.99
64243;BME280;50573;51.512;5.386;2023-01-27T02:34:03;102247.66;;;4.90;90.44
64243;BME280;50573;51.512;5.386;2023-01-27T02:44:08;102261.38;;;4.82;91.09
64243;BME280;50573;51.512;5.386;2023-01-27T02:54:14;102262.81;;;4.76;91.90
64243;BME280;50573;51.512;5.386;2023-01-27T03:04:17;102262.19;;;4.63;92.50
64243;BME280;50573;51.512;5.386;2023-01-27T03:14:21;102264.00;;;4.78;92.17
64243;BME280;50573;51.512;5.386;2023-01-27T03:24:38;102264.59;;;4.68;92.68
64243;BME280;50573;51.512;5.386;2023-01-27T03:34:43;102276.09;;;4.65;92.72
64243;BME280;50573;51.512;5.386;2023-01-27T03:44:57;102280.06;;;4.71;92.52
64243;BME280;50573;51.512;5.386;2023-01-27T03:55:19;102294.00;;;4.73;93.49
64243;BME280;50573;51.512;5.386;2023-01-27T04:05:23;102295.31;;;4.64;94.52
64243;BME280;50573;51.512;5.386;2023-01-27T04:15:45;102295.13;;;4.53;95.72
64243;BME280;50573;51.512;5.386;2023-01-27T04:25:48;102294.69;;;4.51;96.88
64243;BME280;50573;51.512;5.386;2023-01-27T04:35:55;102300.06;;;4.51;97.05
64243;BME280;50573;51.512;5.386;2023-01-27T04:45:58;102306.75;;;4.57;97.66
64243;BME280;50573;51.512;5.386;2023-01-27T04:56:05;102313.75;;;4.43;97.32
64243;BME280;50573;51.512;5.386;2023-01-27T05:06:09;102315.84;;;4.49;96.72
64243;BME280;50573;51.512;5.386;2023-01-27T05:16:17;102330.34;;;4.60;95.20
64243;BME280;50573;51.512;5.386;2023-01-27T05:26:22;102327.78;;;4.48;93.83
64243;BME280;50573;51.512;5.386;2023-01-27T05:36:28;102340.78;;;4.62;94.25
64243;BME280;50573;51.512;5.386;2023-01-27T05:46:32;102350.50;;;4.47;93.22
64243;BME280;50573;51.512;5.386;2023-01-27T05:56:37;102355.31;;;4.57;92.46
64243;BME280;50573;51.512;5.386;2023-01-27T06:06:41;102369.75;;;4.46;92.95
64243;BME280;50573;51.512;5.386;2023-01-27T06:16:45;102366.06;;;4.54;93.29
64243;BME280;50573;51.512;5.386;2023-01-27T06:26:49;102370.19;;;4.67;92.60
64243;BME280;50573;51.512;5.386;2023-01-27T06:36:53;102381.50;;;4.72;92.20
64243;BME280;50573;51.512;5.386;2023-01-27T06:46:56;102384.53;;;4.71;91.35
64243;BME280;50573;51.512;5.386;2023-01-27T06:57:01;102384.00;;;4.81;90.39
64243;BME280;50573;51.512;5.386;2023-01-27T07:07:04;102389.81;;;4.83;90.32
64243;BME280;50573;51.512;5.386;2023-01-27T07:17:09;102391.09;;;4.89;89.76
64243;BME280;50573;51.512;5.386;2023-01-27T07:27:12;102392.66;;;4.90;89.00
64243;BME280;50573;51.512;5.386;2023-01-27T07:37:16;102397.38;;;4.93;88.06
64243;BME280;50573;51.512;5.386;2023-01-27T07:47:19;102412.69;;;5.08;87.73
64243;BME280;50573;51.512;5.386;2023-01-27T07:57:26;102423.94;;;5.10;87.32
64243;BME280;50573;51.512;5.386;2023-01-27T08:07:29;102420.16;;;5.14;87.25
64243;BME280;50573;51.512;5.386;2023-01-27T08:17:33;102419.81;;;5.16;87.53
64243;BME280;50573;51.512;5.386;2023-01-27T08:27:37;102422.59;;;5.00;87.96
64243;BME280;50573;51.512;5.386;2023-01-27T08:37:41;102439.59;;;5.20;88.35
64243;BME280;50573;51.512;5.386;2023-01-27T08:47:46;102438.50;;;5.05;88.46
64243;BME280;50573;51.512;5.386;2023-01-27T08:57:50;102458.94;;;5.22;88.29
64243;BME280;50573;51.512;5.386;2023-01-27T09:07:54;102483.56;;;5.20;88.34
64243;BME280;50573;51.512;5.386;2023-01-27T09:17:58;102478.97;;;5.21;88.22
64243;BME280;50573;51.512;5.386;2023-01-27T09:28:01;102482.59;;;5.28;87.11
64243;BME280;50573;51.512;5.386;2023-01-27T09:38:06;102488.38;;;5.46;86.32
64243;BME280;50573;51.512;5.386;2023-01-27T09:48:22;102483.31;;;5.44;85.72
64243;BME280;50573;51.512;5.386;2023-01-27T09:58:42;102495.13;;;5.55;85.25
64243;BME280;50573;51.512;5.386;2023-01-27T10:09:17;102509.41;;;5.37;84.63
64243;BME280;50573;51.512;5.386;2023-01-27T10:19:36;102509.84;;;5.39;85.05
64243;BME280;50573;51.512;5.386;2023-01-27T10:29:45;102494.91;;;5.45;84.85
64243;BME280;50573;51.512;5.386;2023-01-27T10:39:54;102492.06;;;5.57;84.08
64243;BME280;50573;51.512;5.386;2023-01-27T10:50:06;102490.56;;;5.59;83.97
64243;BME280;50573;51.512;5.386;2023-01-27T11:00:15;102495.34;;;5.85;83.92
64243;BME280;50573;51.512;5.386;2023-01-27T11:10:45;102492.69;;;5.89;83.02
64243;BME280;50573;51.512;5.386;2023-01-27T11:21:09;102488.13;;;5.54;83.89
64243;BME280;50573;51.512;5.386;2023-01-27T11:31:29;102493.50;;;5.51;84.75
64243;BME280;50573;51.512;5.386;2023-01-27T11:41:44;102487.19;;;5.66;84.00
64243;BME280;50573;51.512;5.386;2023-01-27T11:51:48;102478.03;;;5.90;83.96
64243;BME280;50573;51.512;5.386;2023-01-27T12:01:57;102479.84;;;6.27;82.53
64243;BME280;50573;51.512;5.386;2023-01-27T12:12:22;102474.78;;;6.03;82.96
64243;BME280;50573;51.512;5.386;2023-01-27T12:22:29;102465.72;;;5.92;83.61
64243;BME280;50573;51.512;5.386;2023-01-27T12:32:37;102462.16;;;5.69;82.56
64243;BME280;50573;51.512;5.386;2023-01-27T12:42:46;102442.03;;;5.66;84.16
64243;BME280;50573;51.512;5.386;2023-01-27T12:52:53;102448.00;;;5.95;82.92
64243;BME280;50573;51.512;5.386;2023-01-27T13:03:03;102436.03;;;5.77;82.06
64243;BME280;50573;51.512;5.386;2023-01-27T13:13:17;102448.22;;;5.67;81.55
64243;BME280;50573;51.512;5.386;2023-01-27T13:23:25;102429.16;;;6.02;81.45
64243;BME280;50573;51.512;5.386;2023-01-27T13:33:42;102439.44;;;5.93;81.06
64243;BME280;50573;51.512;5.386;2023-01-27T13:43:56;102432.72;;;6.06;81.48
64243;BME280;50573;51.512;5.386;2023-01-27T13:54:03;102444.66;;;6.05;80.86
64243;BME280;50573;51.512;5.386;2023-01-27T14:04:21;102448.94;;;6.06;80.75
64243;BME280;50573;51.512;5.386;2023-01-27T14:14:35;102448.59;;;5.85;81.32
64243;BME280;50573;51.512;5.386;2023-01-27T14:25:03;102466.50;;;5.93;81.71
64243;BME280;50573;51.512;5.386;2023-01-27T14:35:25;102461.31;;;6.07;81.80
64243;BME280;50573;51.512;5.386;2023-01-27T14:45:35;102475.03;;;6.17;81.44
64243;BME280;50573;51.512;5.386;2023-01-27T14:55:45;102475.28;;;6.09;81.25
64243;BME280;50573;51.512;5.386;2023-01-27T15:05:57;102482.59;;;5.86;82.52
64243;BME280;50573;51.512;5.386;2023-01-27T15:16:11;102488.56;;;5.95;82.63
64243;BME280;50573;51.512;5.386;2023-01-27T15:26:22;102486.88;;;5.87;82.74
64243;BME280;50573;51.512;5.386;2023-01-27T15:36:33;102503.63;;;5.77;82.64
64243;BME280;50573;51.512;5.386;2023-01-27T15:46:41;102517.59;;;5.59;80.07
64243;BME280;50573;51.512;5.386;2023-01-27T15:56:48;102528.81;;;5.42;81.14
64243;BME280;50573;51.512;5.386;2023-01-27T16:06:56;102515.94;;;5.36;82.15
64243;BME280;50573;51.512;5.386;2023-01-27T16:17:14;102533.22;;;5.31;83.11
64243;BME280;50573;51.512;5.386;2023-01-27T16:27:32;102535.41;;;5.26;83.97
64243;BME280;50573;51.512;5.386;2023-01-27T16:37:37;102543.72;;;5.17;83.54
64243;BME280;50573;51.512;5.386;2023-01-27T16:47:50;102556.00;;;5.15;82.53
64243;BME280;50573;51.512;5.386;2023-01-27T16:57:56;102569.00;;;5.09;82.69
64243;BME280;50573;51.512;5.386;2023-01-27T17:08:15;102575.59;;;5.27;83.11
64243;BME280;50573;51.512;5.386;2023-01-27T17:18:18;102585.38;;;5.16;83.40
64243;BME280;50573;51.512;5.386;2023-01-27T17:28:25;102579.88;;;5.13;84.18
64243;BME280;50573;51.512;5.386;2023-01-27T17:38:38;102587.63;;;5.14;84.97
64243;BME280;50573;51.512;5.386;2023-01-27T17:48:49;102600.44;;;5.17;84.15
64243;BME280;50573;51.512;5.386;2023-01-27T17:58:56;102600.16;;;5.22;83.97
64243;BME280;50573;51.512;5.386;2023-01-27T18:09:15;102603.22;;;5.21;83.99
64243;BME280;50573;51.512;5.386;2023-01-27T18:19:21;102609.69;;;5.16;83.15
64243;BME280;50573;51.512;5.386;2023-01-27T18:29:32;102613.72;;;5.07;82.69
64243;BME280;50573;51.512;5.386;2023-01-27T18:39:38;102616.16;;;5.12;81.81
64243;BME280;50573;51.512;5.386;2023-01-27T18:49:43;102617.13;;;5.04;82.09
64243;BME280;50573;51.512;5.386;2023-01-27T18:59:48;102634.53;;;5.06;82.45
64243;BME280;50573;51.512;5.386;2023-01-27T19:09:53;102645.06;;;5.11;82.00
64243;BME280;50573;51.512;5.386;2023-01-27T19:19:56;102652.63;;;5.06;82.00
64243;BME280;50573;51.512;5.386;2023-01-27T19:30:18;102656.38;;;5.01;81.81
64243;BME280;50573;51.512;5.386;2023-01-27T19:40:25;102659.97;;;5.05;80.72
64243;BME280;50573;51.512;5.386;2023-01-27T19:50:30;102682.69;;;5.04;81.39
64243;BME280;50573;51.512;5.386;2023-01-27T20:00:35;102673.03;;;5.03;80.60
64243;BME280;50573;51.512;5.386;2023-01-27T20:10:41;102681.84;;;5.00;80.71
64243;BME280;50573;51.512;5.386;2023-01-27T20:20:44;102689.84;;;4.97;80.49
64243;BME280;50573;51.512;5.386;2023-01-27T20:30:49;102683.91;;;4.76;80.93
64243;BME280;50573;51.512;5.386;2023-01-27T20:40:52;102688.91;;;4.89;80.46
64243;BME280;50573;51.512;5.386;2023-01-27T20:50:58;102685.66;;;4.84;80.25
64243;BME280;50573;51.512;5.386;2023-01-27T21:01:05;102673.41;;;4.86;80.14
64243;BME280;50573;51.512;5.386;2023-01-27T21:11:10;102686.34;;;4.81;80.09
64243;BME280;50573;51.512;5.386;2023-01-27T21:21:21;102677.34;;;4.77;79.91
64243;BME280;50573;51.512;5.386;2023-01-27T21:31:28;102671.63;;;4.78;80.19
64243;BME280;50573;51.512;5.386;2023-01-27T21:41:31;102673.69;;;4.69;80.16
64243;BME280;50573;51.512;5.386;2023-01-27T21:51:53;102661.09;;;4.73;81.10
64243;BME280;50573;51.512;5.386;2023-01-27T22:01:57;102660.00;;;4.62;81.17
64243;BME280;50573;51.512;5.386;2023-01-27T22:12:01;102654.97;;;4.61;81.54
64243;BME280;50573;51.512;5.386;2023-01-27T22:22:05;102657.31;;;4.62;81.34
64243;BME280;50573;51.512;5.386;2023-01-27T22:32:10;102653.13;;;4.49;81.47
64243;BME280;50573;51.512;5.386;2023-01-27T22:42:13;102646.66;;;4.38;81.71
64243;BME280;50573;51.512;5.386;2023-01-27T22:52:18;102643.72;;;4.43;81.24
64243;BME280;50573;51.512;5.386;2023-01-27T23:02:21;102640.97;;;4.28;81.94
64243;BME280;50573;51.512;5.386;2023-01-27T23:12:28;102662.50;;;4.12;81.91
64243;BME280;50573;51.512;5.386;2023-01-27T23:22:32;102657.63;;;4.30;82.24
64243;BME280;50573;51.512;5.386;2023-01-27T23:32:37;102656.91;;;4.33;82.43
64243;BME280;50573;51.512;5.386;2023-01-27T23:42:40;102655.78;;;4.34;82.91
64243;BME280;50573;51.512;5.386;2023-01-27T23:52:44;102663.00;;;4.30;83.22
